Time;durP1;ratioP1;P1;durP2;ratioP2;P2;SDS_P1;SDS_P2;PMS_P1;PMS_P2;Temp;Humidity;BMP_temperature;BMP_pressure;BME280_temperature;BME280_humidity;BME280_pressure;Samples;Min_cycle;Max_cycle;Signal;HPM_P1;HPM_P2
2023/03/03 14:06:33;;;;;;;29.35;10.43;;;7.90;98.60;;;7.78;81.83;101828.22;5063446;29;20166;-53
2023/03/03 14:09:21;;;;;;;34.67;12.07;;;7.90;98.80;;;7.82;81.74;101825.94;5059640;29;20048;-55
2023/03/03 14:12:04;;;;;;;29.55;10.50;;;7.90;98.90;;;7.79;82.00;101830.91;5067441;29;20052;-55
2023/03/03 14:14:47;;;;;;;28.13;9.90;;;7.90;99.00;;;7.82;82.22;101825.94;5058647;29;20096;-53
2023/03/03 14:17:30;;;;;;;32.97;11.68;;;7.90;99.10;;;7.84;81.88;101832.09;5055185;29;20494;-54
2023/03/03 14:20:18;;;;;;;31.67;11.27;;;7.90;99.10;;;7.76;81.85;101825.56;5067544;29;20045;-53
2023/03/03 14:22:55;;;;;;;30.08;10.52;;;7.80;99.00;;;7.63;82.13;101823.00;5064450;29;20125;-53
2023/03/03 14:25:52;;;;;;;29.70;10.10;;;7.70;99.00;;;7.56;82.49;101818.19;5056050;29;20080;-56
2023/03/03 14:28:27;;;;;;;29.42;10.40;;;7.70;99.20;;;7.51;83.05;101822.22;5064010;29;20048;-53
2023/03/03 14:31:18;;;;;;;31.60;10.55;;;7.70;99.30;;;7.43;82.89;101810.41;5060539;29;20049;-52
2023/03/03 14:34:02;;;;;;;33.55;12.35;;;7.60;99.40;;;7.34;83.04;101813.34;5067562;29;20438;-54
2023/03/03 14:36:40;;;;;;;34.47;12.27;;;7.50;99.50;;;7.34;83.34;101816.81;5067291;29;20454;-53
2023/03/03 14:39:33;;;;;;;31.90;11.55;;;7.50;99.60;;;7.30;83.17;101804.47;5061343;29;20052;-54
2023/03/03 14:42:13;;;;;;;31.30;11.65;;;7.40;99.60;;;7.25;83.59;101802.41;5053095;29;20409;-52
2023/03/03 14:44:55;;;;;;;31.27;10.68;;;7.40;99.80;;;7.20;83.48;101807.28;5056533;29;20048;-53
2023/03/03 14:47:28;;;;;;;33.50;11.63;;;7.30;99.70;;;7.17;83.87;101804.50;5056032;29;20476;-54
2023/03/03 14:50:02;;;;;;;38.35;11.90;;;7.30;99.80;;;7.14;83.39;101804.28;5063373;29;20045;-53
2023/03/03 14:52:41;;;;;;;34.28;11.35;;;7.20;99.90;;;7.14;84.57;101806.88;5060305;29;20049;-55
2023/03/03 14:58:32;;;;;;;33.30;10.60;;;7.20;99.90;;;7.02;84.47;101804.38;5226040;28;20380;-53
2023/03/03 15:01:24;;;;;;;35.17;11.32;;;7.20;99.90;;;7.02;84.82;101799.19;5177159;28;20049;-53
2023/03/03 15:04:00;;;;;;;34.25;11.02;;;7.10;99.90;;;6.98;84.77;101788.56;5183045;28;20141;-54
2023/03/03 15:06:41;;;;;;;29.73;10.02;;;7.10;99.90;;;6.94;85.35;101789.13;5177603;28;20045;-52
2023/03/03 15:09:35;;;;;;;34.20;11.48;;;7.10;99.90;;;6.99;85.08;101788.63;5198958;23;20045;-59
2023/03/03 15:12:26;;;;;;;36.10;11.55;;;7.10;99.90;;;6.94;84.24;101781.34;5210544;28;20092;-58
2023/03/03 15:15:17;;;;;;;38.85;11.57;;;7.10;99.90;;;6.80;84.21;101786.53;5209569;28;20405;-58
2023/03/03 15:18:01;;;;;;;38.10;10.27;;;7.00;99.90;;;6.71;86.41;101780.72;5213122;28;20099;-57
2023/03/03 15:20:41;;;;;;;36.03;10.65;;;6.90;99.90;;;6.75;85.54;101777.56;5214750;28;20099;-59
2023/03/03 15:23:40;;;;;;;39.85;11.75;;;6.90;99.90;;;6.73;85.35;101781.75;5219706;28;20517;-58
2023/03/03 15:26:21;;;;;;;32.83;10.23;;;6.90;99.90;;;6.63;85.56;101783.63;5214633;28;20060;-58
2023/03/03 15:29:05;;;;;;;33.55;11.25;;;6.80;99.90;;;6.59;85.68;101779.94;5219293;28;20041;-57
2023/03/03 15:31:46;;;;;;;37.83;12.65;;;6.80;99.90;;;6.51;85.81;101779.41;5221181;28;20045;-59
2023/03/03 15:34:36;;;;;;;30.92;10.82;;;6.70;99.90;;;6.48;86.24;101783.50;5221071;28;20512;-60
2023/03/03 15:37:27;;;;;;;33.13;10.85;;;6.70;99.90;;;6.47;86.59;101776.53;5213717;28;20382;-57
2023/03/03 15:40:13;;;;;;;35.05;11.15;;;6.70;99.90;;;6.42;86.68;101777.91;5216015;28;20041;-58
2023/03/03 15:42:49;;;;;;;37.70;11.88;;;6.60;99.90;;;6.41;87.14;101773.53;5219513;28;20041;-58
2023/03/03 15:45:32;;;;;;;35.45;10.68;;;6.60;99.90;;;6.42;87.13;101780.50;5217350;28;20138;-56
2023/03/03 15:48:28;;;;;;;37.80;11.45;;;6.60;99.90;;;6.38;87.04;101770.72;5212843;28;20096;-57
2023/03/03 15:51:12;;;;;;;38.30;11.65;;;6.60;99.90;;;6.34;87.33;101768.75;5202506;28;20045;-57
2023/03/03 15:54:12;;;;;;;38.63;11.68;;;6.60;99.90;;;6.31;87.38;101776.28;5218202;28;20037;-57
2023/03/03 15:56:51;;;;;;;39.28;13.10;;;6.50;99.90;;;6.24;87.65;101764.63;5202435;28;20053;-58
2023/03/03 16:00:03;;;;;;;38.53;11.80;;;6.50;99.90;;;6.15;87.66;101780.44;5219445;28;20045;-58
2023/03/03 16:02:49;;;;;;;;;;;6.40;99.90;;;6.08;87.98;101782.53;5218331;28;20116;-59
2023/03/03 16:05:39;;;;;;;42.53;11.43;;;6.30;99.90;;;5.98;88.44;101776.69;5220018;28;19925;-56
2023/03/03 16:08:16;;;;;;;34.08;10.95;;;6.20;99.90;;;5.92;88.42;101786.63;5207498;28;20533;-57
2023/03/03 16:11:02;;;;;;;41.20;11.63;;;6.20;99.90;;;5.86;89.30;101774.91;5205023;28;20046;-57
2023/03/03 16:14:10;;;;;;;36.50;11.18;;;6.10;99.90;;;5.77;89.86;101779.47;5203179;28;20042;-58
2023/03/03 16:16:50;;;;;;;39.80;11.25;;;6.00;99.90;;;5.71;89.38;101793.75;5195776;28;20129;-57
2023/03/03 16:19:37;;;;;;;43.25;12.02;;;6.00;99.90;;;5.65;90.15;101790.75;5192913;28;20490;-57
2023/03/03 16:22:47;;;;;;;41.50;11.95;;;5.90;99.90;;;5.59;90.73;101789.41;5192070;28;20049;-58
2023/03/03 16:25:36;;;;;;;43.38;12.38;;;5.80;99.90;;;5.54;91.15;101790.78;5197940;28;20061;-58
2023/03/03 16:28:15;;;;;;;38.08;10.52;;;5.80;99.90;;;5.49;91.36;101792.16;5190868;28;20087;-57
2023/03/03 16:30:57;;;;;;;41.83;12.07;;;5.70;99.90;;;5.47;91.43;101789.44;5187105;28;20041;-57
2023/03/03 16:33:36;;;;;;;40.42;11.65;;;5.70;99.90;;;5.42;91.38;101793.41;5201895;28;20041;-59
2023/03/03 16:36:22;;;;;;;43.40;10.50;;;5.70;99.90;;;5.36;91.41;101803.31;5190254;28;20042;-58
2023/03/03 16:39:03;;;;;;;35.92;10.65;;;5.60;99.90;;;5.31;91.92;101808.16;5198358;28;20129;-58
2023/03/03 16:41:52;;;;;;;36.28;11.77;;;5.50;99.90;;;5.32;92.24;101803.88;5193020;28;20049;-59
2023/03/03 16:44:40;;;;;;;37.22;10.20;;;5.60;99.90;;;5.27;92.61;101816.47;5195080;28;20521;-58
2023/03/03 16:47:29;;;;;;;34.08;9.73;;;5.50;99.90;;;5.25;92.46;101814.56;5197812;28;20044;-58
2023/03/03 16:50:16;;;;;;;33.58;10.02;;;5.50;99.90;;;5.24;92.88;101823.13;5193442;28;20124;-58
2023/03/03 16:52:55;;;;;;;35.13;9.30;;;5.50;99.90;;;5.22;93.02;101815.25;5195774;28;20038;-59
2023/03/03 16:55:35;;;;;;;37.55;9.98;;;5.50;99.90;;;5.18;92.55;101824.47;5193411;28;20069;-59
2023/03/03 16:58:24;;;;;;;37.75;10.55;;;5.40;99.90;;;5.13;93.01;101822.31;5206023;28;20092;-58
2023/03/03 17:01:08;;;;;;;34.22;9.60;;;5.40;99.90;;;5.06;93.51;101826.16;5189822;28;20056;-59
2023/03/03 17:04:00;;;;;;;32.38;9.05;;;5.30;99.90;;;5.04;93.29;101832.91;5202812;28;20045;-60
2023/03/03 17:06:41;;;;;;;35.92;9.43;;;5.30;99.90;;;5.02;93.70;101833.56;5201647;28;20049;-60
2023/03/03 17:09:46;;;;;;;31.02;8.43;;;5.20;99.90;;;4.98;93.56;101827.28;5192319;28;20081;-58
2023/03/03 17:12:49;;;;;;;36.22;9.93;;;5.20;99.90;;;4.95;93.86;101831.31;5194941;28;20120;-58
2023/03/03 17:15:42;;;;;;;30.58;8.15;;;5.20;99.90;;;4.86;94.09;101836.72;5187572;28;20533;-57
2023/03/03 17:18:28;;;;;;;32.25;8.45;;;5.10;99.90;;;4.83;94.40;101831.31;5205479;28;20052;-57
2023/03/03 17:21:02;;;;;;;27.75;8.52;;;5.10;99.90;;;4.85;95.00;101837.50;5193967;28;20405;-58
2023/03/03 17:23:56;;;;;;;24.58;8.82;;;5.00;99.90;;;4.82;95.04;101839.84;5206110;28;20052;-57
2023/03/03 17:26:43;;;;;;;29.13;8.68;;;5.00;99.90;;;4.82;95.09;101845.91;5211573;28;20425;-58
2023/03/03 17:29:32;;;;;;;23.80;8.35;;;5.00;99.90;;;4.76;94.99;101847.13;5204476;28;20072;-59
2023/03/03 17:32:20;;;;;;;30.42;9.48;;;5.00;99.90;;;4.67;95.74;101849.94;5196671;28;20049;-59
2023/03/03 17:35:15;;;;;;;28.00;8.85;;;4.90;99.90;;;4.61;96.36;101847.78;5203363;28;20053;-57
2023/03/03 17:37:53;;;;;;;;;;;4.80;99.90;;;4.53;96.71;101856.66;5204783;28;20433;-57
2023/03/03 17:40:43;;;;;;;31.33;10.60;;;4.80;99.90;;;4.44;97.33;101850.78;5198455;28;19925;-61
2023/03/03 17:43:20;;;;;;;33.58;10.07;;;4.70;99.90;;;4.37;97.81;101856.28;5190679;28;20043;-58
2023/03/03 17:45:59;;;;;;;28.60;9.07;;;4.60;99.90;;;4.33;98.21;101851.66;5175278;28;20570;-59
2023/03/03 17:49:05;;;;;;;24.95;9.05;;;4.60;99.90;;;4.29;98.29;101867.66;5192758;28;20557;-54
2023/03/03 17:52:12;;;;;;;31.92;10.25;;;4.50;99.90;;;4.25;98.76;101863.06;5185648;28;20061;-63
2023/03/03 17:55:17;;;;;;;30.30;9.15;;;4.50;99.90;;;4.23;99.17;101867.19;5186725;28;20054;-63
2023/03/03 17:58:11;;;;;;;27.10;8.73;;;4.40;99.90;;;4.22;99.55;101866.31;5192914;28;20092;-64
2023/03/03 18:01:00;;;;;;;29.30;9.63;;;4.40;99.90;;;4.19;99.61;101875.50;5202355;28;20435;-63
2023/03/03 18:04:09;;;;;;;33.22;10.13;;;4.40;99.90;;;4.12;100.00;101880.97;5195627;28;20045;-61
2023/03/03 18:07:32;;;;;;;27.08;8.60;;;4.40;99.90;;;4.07;100.00;101884.09;5204287;28;20056;-65
2023/03/03 18:10:38;;;;;;;27.50;8.90;;;4.30;99.90;;;4.05;100.00;101879.59;5193186;28;20437;-65
2023/03/03 18:13:34;;;;;;;23.13;8.27;;;4.30;99.90;;;4.03;100.00;101882.03;5197903;28;20060;-63
2023/03/03 18:16:24;;;;;;;28.10;8.80;;;4.20;99.90;;;4.01;100.00;101886.19;5197363;28;20077;-66
2023/03/03 18:19:26;;;;;;;30.92;8.98;;;4.30;99.90;;;3.99;100.00;101887.75;5203990;28;20049;-65
2023/03/03 18:22:07;;;;;;;28.80;9.18;;;4.20;99.90;;;3.96;100.00;101884.91;5204438;28;20046;-65
2023/03/03 18:24:59;;;;;;;26.08;8.63;;;4.20;99.90;;;3.96;100.00;101878.88;5204014;28;20053;-63
2023/03/03 18:27:38;;;;;;;26.17;8.32;;;4.20;99.90;;;3.94;100.00;101883.91;5203472;28;20041;-65
2023/03/03 18:30:27;;;;;;;26.88;7.90;;;4.20;99.90;;;3.92;100.00;101887.16;5192366;28;20097;-63
2023/03/03 18:33:08;;;;;;;29.58;8.10;;;4.10;99.90;;;3.90;100.00;101892.19;5196072;28;20049;-64
2023/03/03 18:35:42;;;;;;;24.65;8.15;;;4.10;99.90;;;3.87;100.00;101884.22;5194351;28;20049;-64
2023/03/03 18:38:29;;;;;;;29.85;9.23;;;4.00;99.90;;;3.82;100.00;101890.69;5199143;28;20041;-63
2023/03/03 18:41:03;;;;;;;24.25;7.95;;;4.00;99.90;;;3.76;100.00;101890.19;5196860;28;20044;-66
2023/03/03 18:43:51;;;;;;;25.23;8.40;;;4.00;99.90;;;3.69;100.00;101893.06;5194835;28;20120;-65
2023/03/03 18:46:53;;;;;;;26.67;7.88;;;3.90;99.90;;;3.65;100.00;101897.09;5200114;28;20057;-65
2023/03/03 18:50:03;;;;;;;23.77;8.68;;;3.80;99.90;;;3.60;100.00;101905.25;5204046;28;20033;-64
2023/03/03 18:52:37;;;;;;;23.27;7.32;;;3.80;99.90;;;3.53;100.00;101907.31;5201500;28;20084;-64
2023/03/03 18:55:27;;;;;;;22.52;7.25;;;3.70;99.90;;;3.51;100.00;101902.78;5204498;28;20535;-64
2023/03/03 18:58:30;;;;;;;18.98;7.25;;;3.70;99.90;;;3.46;100.00;101901.56;5176756;28;20045;-63
2023/03/03 19:01:34;;;;;;;20.98;7.35;;;3.70;99.90;;;3.40;100.00;101909.69;5200099;28;20045;-63
2023/03/03 19:04:22;;;;;;;23.52;7.57;;;3.60;99.90;;;3.36;100.00;101907.63;5172071;28;20053;-63
2023/03/03 19:07:25;;;;;;;23.13;7.75;;;3.60;99.90;;;3.31;100.00;101914.06;5186200;28;20049;-65
2023/03/03 19:10:00;;;;;;;22.63;6.88;;;3.50;99.90;;;3.26;100.00;101908.56;5196191;28;20094;-64
2023/03/03 19:12:47;;;;;;;20.73;7.72;;;3.50;99.90;;;3.24;100.00;101906.63;5194941;28;20050;-66
2023/03/03 19:15:46;;;;;;;24.08;7.95;;;3.40;99.90;;;3.19;100.00;101913.06;5183894;28;20124;-66
2023/03/03 19:18:22;;;;;;;21.85;7.15;;;3.40;99.90;;;3.16;100.00;101915.41;5199037;28;20503;-63
2023/03/03 19:21:01;;;;;;;26.30;8.25;;;3.40;99.90;;;3.13;100.00;101918.66;5187730;28;20052;-63
2023/03/03 19:23:53;;;;;;;22.65;7.68;;;3.30;99.90;;;3.10;100.00;101918.38;5204074;28;20049;-64
2023/03/03 19:26:52;;;;;;;25.90;8.20;;;3.30;99.90;;;3.08;100.00;101921.63;5204309;28;20128;-63
2023/03/03 19:29:59;;;;;;;28.77;9.25;;;3.30;99.90;;;3.02;100.00;101923.69;5193036;28;20092;-61
2023/03/03 19:33:14;;;;;;;25.50;8.68;;;3.20;99.90;;;2.97;100.00;101923.28;5199988;28;20045;-64
2023/03/03 19:36:16;;;;;;;23.48;7.78;;;3.20;99.90;;;2.88;100.00;101925.13;5184325;28;20080;-64
2023/03/03 19:39:11;;;;;;;27.35;8.82;;;3.10;99.90;;;2.82;100.00;101925.50;5192691;28;20052;-64
2023/03/03 19:41:58;;;;;;;27.63;8.80;;;3.10;99.90;;;2.75;100.00;101933.50;5204114;28;20107;-63
2023/03/03 19:44:52;;;;;;;28.48;9.60;;;3.00;99.90;;;2.69;100.00;101935.56;5206902;28;20052;-65
2023/03/03 19:47:36;;;;;;;29.10;9.50;;;2.90;99.90;;;2.63;100.00;101937.59;5191961;28;20077;-65
2023/03/03 19:50:22;;;;;;;28.88;9.38;;;2.80;99.90;;;2.56;100.00;101933.63;5194827;28;20136;-64
2023/03/03 19:53:04;;;;;;;29.45;10.60;;;2.80;99.90;;;2.51;100.00;101934.00;5199460;28;20393;-65
2023/03/03 19:55:59;;;;;;;36.53;11.05;;;2.80;99.90;;;2.44;100.00;101930.91;5189202;28;20497;-63
2023/03/03 19:58:42;;;;;;;35.20;10.82;;;2.70;99.90;;;2.38;100.00;101932.94;5198887;28;20049;-65
2023/03/03 20:01:23;;;;;;;30.70;9.98;;;2.70;99.90;;;2.35;100.00;101924.97;5202187;28;20042;-66
2023/03/03 20:04:23;;;;;;;35.45;11.35;;;2.60;99.90;;;2.32;100.00;101929.84;5199075;28;20099;-65
2023/03/03 20:07:01;;;;;;;31.80;10.70;;;2.60;99.90;;;2.32;100.00;101924.69;5207161;28;20152;-65
2023/03/03 20:09:45;;;;;;;38.38;10.48;;;2.60;99.90;;;2.30;100.00;101928.81;5172711;28;20045;-65
2023/03/03 20:12:46;;;;;;;32.03;10.82;;;2.60;99.90;;;2.30;100.00;101940.78;5200448;28;20041;-66
2023/03/03 20:15:25;;;;;;;34.97;11.15;;;2.50;99.90;;;2.26;100.00;101936.13;5200555;28;20127;-67
2023/03/03 20:18:43;;;;;;;34.15;11.07;;;2.50;99.90;;;2.20;100.00;101935.59;5198991;28;20502;-67
2023/03/03 20:21:31;;;;;;;41.25;11.73;;;2.50;99.90;;;2.15;100.00;101935.19;5186473;28;20499;-66
2023/03/03 20:24:49;;;;;;;40.42;12.73;;;2.40;99.90;;;2.13;100.00;101937.66;5186164;28;20056;-65
2023/03/03 20:27:29;;;;;;;39.78;12.32;;;2.40;99.90;;;2.11;100.00;101934.06;5192387;28;20483;-65
2023/03/03 20:30:10;;;;;;;39.00;13.38;;;2.40;99.90;;;2.10;100.00;101942.53;5206739;28;20045;-67
2023/03/03 20:33:03;;;;;;;40.20;13.90;;;2.40;99.90;;;2.12;100.00;101934.94;5198357;28;20072;-65
2023/03/03 20:35:47;;;;;;;38.90;13.48;;;2.30;99.90;;;2.12;100.00;101935.84;5179467;28;20049;-66
2023/03/03 20:38:28;;;;;;;33.13;11.88;;;2.40;99.90;;;2.12;100.00;101945.25;5181920;28;20049;-65
2023/03/03 20:41:12;;;;;;;38.40;12.55;;;2.30;99.90;;;2.10;100.00;101946.78;5206454;28;20392;-63
2023/03/03 20:44:02;;;;;;;43.65;12.88;;;2.40;99.90;;;2.07;100.00;101944.81;5190178;28;20046;-64
2023/03/03 20:46:47;;;;;;;41.55;12.52;;;2.40;99.90;;;2.08;100.00;101940.59;5206543;28;20537;-62
2023/03/03 20:49:47;;;;;;;39.72;12.88;;;2.30;99.90;;;2.10;100.00;101939.06;5198235;28;20038;-63
2023/03/03 20:52:31;;;;;;;46.33;13.10;;;2.40;99.90;;;2.09;100.00;101939.84;5177852;28;20418;-63
2023/03/03 20:55:17;;;;;;;49.42;15.65;;;2.40;99.90;;;2.08;100.00;101943.16;5181209;28;20045;-64
2023/03/03 20:57:58;;;;;;;42.88;14.90;;;2.30;99.90;;;2.06;100.00;101939.56;5206394;28;20417;-67
2023/03/03 21:00:39;;;;;;;48.58;15.32;;;2.30;99.90;;;2.05;100.00;101948.94;5197618;28;20041;-62
2023/03/03 21:03:19;;;;;;;50.60;15.85;;;2.30;99.90;;;2.04;100.00;101941.09;5206125;28;20037;-64
2023/03/03 21:05:58;;;;;;;44.13;13.82;;;2.30;99.90;;;1.99;100.00;101943.28;5197714;28;20129;-64
2023/03/03 21:11:09;;;;;;;48.75;14.57;;;2.30;99.90;;;1.93;100.00;101947.88;5269742;23;20061;-84
2023/03/03 21:13:43;;;;;;;44.65;14.55;;;2.20;99.90;;;1.88;100.00;101947.47;5246770;28;20051;-83
2023/03/03 21:16:32;;;;;;;41.40;14.15;;;2.20;99.90;;;1.88;100.00;101955.19;5237217;28;20040;-83
2023/03/03 21:19:07;;;;;;;42.28;12.75;;;2.20;99.90;;;1.88;100.00;101947.47;5235290;28;20510;-84
2023/03/03 21:21:44;;;;;;;47.45;14.10;;;2.10;99.90;;;1.90;100.00;101955.34;5243200;28;20041;-83
2023/03/03 21:24:18;;;;;;;48.90;14.70;;;2.20;99.90;;;1.94;100.00;101954.81;5231544;28;20041;-81
2023/03/03 21:26:56;;;;;;;46.70;12.98;;;2.20;99.90;;;1.98;100.00;101945.72;5233993;28;20051;-84
2023/03/03 21:29:31;;;;;;;50.65;15.70;;;2.20;99.90;;;2.02;100.00;101948.69;5254308;28;20036;-83
2023/03/03 21:32:06;;;;;;;48.75;14.73;;;2.30;99.90;;;2.07;100.00;101951.66;5229447;28;20055;-83
2023/03/03 21:34:40;;;;;;;45.47;14.82;;;2.30;99.90;;;2.11;100.00;101959.78;5237520;28;20514;-84
2023/03/03 21:37:15;;;;;;;61.30;17.10;;;2.40;99.90;;;2.13;100.00;101952.19;5237744;28;20048;-84
2023/03/03 21:39:47;;;;;;;57.42;17.15;;;2.40;99.90;;;2.16;100.00;101955.03;5246936;28;20060;-84
2023/03/03 21:42:41;;;;;;;60.83;17.85;;;2.40;99.90;;;2.18;100.00;101954.38;5255203;28;20032;-84
2023/03/03 21:45:15;;;;;;;66.43;19.42;;;2.50;99.90;;;2.23;100.00;101948.75;5240520;28;20054;-83
2023/03/03 21:47:49;;;;;;;54.83;17.83;;;2.50;99.90;;;2.26;100.00;101944.75;5234235;28;20048;-83
2023/03/03 21:50:22;;;;;;;76.78;24.98;;;2.60;99.90;;;2.30;100.00;101941.69;5236034;28;20064;-84
2023/03/03 21:52:55;;;;;;;66.68;23.25;;;2.60;99.90;;;2.31;100.00;101956.34;5234174;28;20078;-83
2023/03/03 21:55:27;;;;;;;73.22;23.90;;;2.60;99.90;;;2.33;100.00;101939.34;5237074;28;20044;-85
2023/03/03 21:57:59;;;;;;;63.88;22.08;;;2.60;99.90;;;2.37;100.00;101943.13;5227345;28;20509;-84
2023/03/03 22:00:31;;;;;;;65.07;20.60;;;2.70;99.90;;;2.40;100.00;101953.66;5247437;28;20578;-83
2023/03/03 22:03:04;;;;;;;64.93;20.92;;;2.70;99.90;;;2.45;100.00;101955.84;5237092;28;20145;-83
2023/03/03 22:05:36;;;;;;;57.45;18.80;;;2.70;99.90;;;2.49;100.00;101953.56;5236184;28;20541;-83
2023/03/03 22:08:08;;;;;;;68.28;21.00;;;2.80;99.90;;;2.52;100.00;101952.13;5238111;28;20056;-84
2023/03/03 22:10:40;;;;;;;63.83;20.15;;;2.80;99.90;;;2.56;100.00;101945.59;5246429;28;20499;-84
2023/03/03 22:13:13;;;;;;;63.17;19.45;;;2.80;99.90;;;2.58;100.00;101954.31;5235733;28;20106;-85
2023/03/03 22:15:46;;;;;;;65.45;19.65;;;2.80;99.90;;;2.60;100.00;101945.94;5248257;28;20059;-84
2023/03/03 22:18:20;;;;;;;54.63;17.48;;;2.90;99.90;;;2.66;100.00;101940.41;5255756;28;20048;-83
2023/03/03 22:20:52;;;;;;;67.53;20.15;;;2.90;99.90;;;2.69;100.00;101939.03;5238410;28;20286;-84
2023/03/03 22:23:24;;;;;;;61.47;19.02;;;2.90;99.90;;;2.71;100.00;101932.31;5236764;28;20349;-83
2023/03/03 22:25:56;;;;;;;61.00;19.38;;;3.00;99.90;;;2.75;100.00;101938.66;5253867;28;20056;-83
2023/03/03 22:28:28;;;;;;;74.05;21.80;;;3.00;99.90;;;2.79;100.00;101930.38;5249857;28;20040;-81
2023/03/03 22:31:00;;;;;;;68.70;21.17;;;3.00;99.90;;;2.79;100.00;101930.38;5243362;28;20107;-81
2023/03/03 22:33:35;;;;;;;68.28;19.00;;;3.00;99.90;;;2.82;100.00;101933.22;5246575;28;20049;-81
2023/03/03 22:36:08;;;;;;;69.30;20.67;;;3.10;99.90;;;2.83;100.00;101922.16;5226367;28;20078;-81
2023/03/03 22:38:40;;;;;;;66.50;19.67;;;3.10;99.90;;;2.87;100.00;101929.38;5246924;28;20510;-81
2023/03/03 22:41:13;;;;;;;64.55;19.83;;;3.10;99.90;;;2.90;100.00;101927.03;5249513;28;20052;-80
2023/03/03 22:43:45;;;;;;;63.80;19.75;;;3.10;99.90;;;2.94;100.00;101916.22;5226726;28;20047;-81
2023/03/03 22:46:17;;;;;;;65.95;19.20;;;3.20;99.90;;;2.98;100.00;101922.50;5230811;28;20048;-81
2023/03/03 22:48:50;;;;;;;61.13;19.40;;;3.20;99.90;;;3.02;100.00;101928.84;5242035;28;20476;-80
2023/03/03 22:51:22;;;;;;;59.50;18.90;;;3.20;99.90;;;3.04;100.00;101917.88;5227278;28;20568;-80
2023/03/03 22:53:54;;;;;;;69.88;19.65;;;3.30;99.90;;;3.04;100.00;101928.19;5246271;28;20041;-80
2023/03/03 22:56:26;;;;;;;62.47;19.05;;;3.30;99.90;;;3.07;100.00;101923.28;5229804;28;20052;-80
2023/03/03 22:58:58;;;;;;;64.97;19.88;;;3.30;99.90;;;3.11;100.00;101929.59;5243270;28;20064;-82
2023/03/03 23:01:31;;;;;;;68.65;20.63;;;3.30;99.90;;;3.11;100.00;101927.00;5236955;28;20048;-83
2023/03/03 23:04:05;;;;;;;70.55;20.25;;;3.30;99.90;;;3.10;100.00;101938.09;5249752;28;20061;-84
2023/03/03 23:06:37;;;;;;;65.97;21.08;;;3.30;99.90;;;3.10;100.00;101944.16;5232695;28;20053;-81
2023/03/03 23:09:10;;;;;;;67.85;19.35;;;3.30;99.90;;;3.13;100.00;101940.91;5228875;28;20045;-82
2023/03/03 23:11:42;;;;;;;63.72;18.70;;;3.40;99.90;;;3.14;100.00;101942.75;5239570;28;20477;-83
2023/03/03 23:14:14;;;;;;;61.88;18.95;;;3.40;99.90;;;3.17;100.00;101937.81;5238013;28;20060;-82
2023/03/03 23:16:46;;;;;;;63.05;18.65;;;3.40;99.90;;;3.17;100.00;101933.56;5233985;28;20078;-84
2023/03/03 23:19:19;;;;;;;64.43;19.27;;;3.40;99.90;;;3.17;100.00;101946.44;5230565;28;20051;-86
2023/03/03 23:21:52;;;;;;;71.90;20.65;;;3.40;99.90;;;3.16;100.00;101943.75;5237785;28;20064;-86
2023/03/03 23:24:24;;;;;;;63.80;20.27;;;3.40;99.90;;;3.19;100.00;101944.00;5240814;28;20067;-83
2023/03/03 23:26:56;;;;;;;65.68;19.77;;;3.40;99.90;;;3.19;100.00;101933.69;5240241;28;20045;-84
2023/03/03 23:29:29;;;;;;;58.30;17.30;;;3.40;99.90;;;3.23;100.00;101943.47;5240594;28;20037;-84
2023/03/03 23:32:01;;;;;;;64.75;19.80;;;3.50;99.90;;;3.25;100.00;101939.34;5240093;28;20070;-86
2023/03/03 23:34:34;;;;;;;63.08;18.40;;;3.50;99.90;;;3.26;100.00;101941.19;5248068;28;20068;-87
2023/03/03 23:37:07;;;;;;;60.22;17.80;;;3.50;99.90;;;3.26;100.00;101942.06;5239599;28;20059;-84
2023/03/03 23:39:39;;;;;;;66.82;20.50;;;3.50;99.90;;;3.27;100.00;101940.41;5234065;28;20045;-86
2023/03/03 23:42:13;;;;;;;74.82;20.38;;;3.50;99.90;;;3.23;100.00;101928.91;5238291;28;20116;-83
2023/03/03 23:44:45;;;;;;;71.90;20.45;;;3.50;99.90;;;3.23;100.00;101936.66;5239933;28;20048;-85
2023/03/03 23:47:17;;;;;;;64.78;18.95;;;3.50;99.90;;;3.24;100.00;101937.53;5256762;28;20064;-85
2023/03/03 23:49:50;;;;;;;62.40;18.20;;;3.50;99.90;;;3.24;100.00;101930.72;5252530;28;20051;-84
2023/03/03 23:52:23;;;;;;;61.63;19.45;;;3.50;99.90;;;3.27;100.00;101937.81;5256247;28;20027;-85
2023/03/03 23:54:55;;;;;;;63.35;19.40;;;3.50;99.90;;;3.27;100.00;101924.94;5243029;28;20045;-84
2023/03/03 23:57:27;;;;;;;67.15;20.80;;;3.50;99.90;;;3.24;100.00;101938.44;5246253;28;20063;-84
2023/03/03 23:59:59;;;;;;;75.00;22.75;;;3.50;99.90;;;3.21;100.00;101933.06;5241030;28;20050;-83
